sensor_id;sensor_type;location;lat;lon;timestamp;P1;durP1;ratioP1;P2;durP2;ratioP2
57573;SDS011;68988;49.000;21.242;2023-07-09T00:00:50;2.83;;;2.33;;
57573;SDS011;68988;49.000;21.242;2023-07-09T00:03:17;2.45;;;2.25;;
57573;SDS011;68988;49.000;21.242;2023-07-09T00:05:43;4.35;;;2.20;;
57573;SDS011;68988;49.000;21.242;2023-07-09T00:08:45;2.33;;;2.22;;
57573;SDS011;68988;49.000;21.242;2023-07-09T00:11:06;2.75;;;2.55;;
57573;SDS011;68988;49.000;21.242;2023-07-09T00:13:31;2.45;;;2.25;;
57573;SDS011;68988;49.000;21.242;2023-07-09T00:15:58;5.60;;;2.40;;
57573;SDS011;68988;49.000;21.242;2023-07-09T00:18:25;2.60;;;2.40;;
57573;SDS011;68988;49.000;21.242;2023-07-09T00:20:51;2.35;;;2.25;;
57573;SDS011;68988;49.000;21.242;2023-07-09T00:23:17;2.88;;;2.40;;
57573;SDS011;68988;49.000;21.242;2023-07-09T00:25:45;2.10;;;2.00;;
57573;SDS011;68988;49.000;21.242;2023-07-09T00:28:17;2.58;;;2.38;;
57573;SDS011;68988;49.000;21.242;2023-07-09T00:30:46;2.97;;;2.38;;
57573;SDS011;68988;49.000;21.242;2023-07-09T00:33:13;2.35;;;2.20;;
57573;SDS011;68988;49.000;21.242;2023-07-09T00:35:43;2.78;;;2.55;;
57573;SDS011;68988;49.000;21.242;2023-07-09T00:38:18;2.50;;;2.30;;
57573;SDS011;68988;49.000;21.242;2023-07-09T00:43:24;3.90;;;2.08;;
57573;SDS011;68988;49.000;21.242;2023-07-09T00:48:44;2.05;;;1.95;;
57573;SDS011;68988;49.000;21.242;2023-07-09T00:51:13;3.65;;;1.90;;
57573;SDS011;68988;49.000;21.242;2023-07-09T00:53:40;4.43;;;2.40;;
57573;SDS011;68988;49.000;21.242;2023-07-09T00:56:13;2.50;;;2.30;;
57573;SDS011;68988;49.000;21.242;2023-07-09T00:58:45;2.58;;;2.10;;
57573;SDS011;68988;49.000;21.242;2023-07-09T01:01:14;2.20;;;2.10;;
57573;SDS011;68988;49.000;21.242;2023-07-09T01:03:47;4.85;;;2.15;;
57573;SDS011;68988;49.000;21.242;2023-07-09T01:06:18;2.28;;;1.98;;
57573;SDS011;68988;49.000;21.242;2023-07-09T01:08:50;2.40;;;2.20;;
57573;SDS011;68988;49.000;21.242;2023-07-09T01:11:19;1.88;;;1.77;;
57573;SDS011;68988;49.000;21.242;2023-07-09T01:13:56;1.95;;;1.85;;
57573;SDS011;68988;49.000;21.242;2023-07-09T01:16:27;1.67;;;1.60;;
57573;SDS011;68988;49.000;21.242;2023-07-09T01:18:56;1.92;;;1.83;;
57573;SDS011;68988;49.000;21.242;2023-07-09T01:21:22;2.17;;;2.08;;
57573;SDS011;68988;49.000;21.242;2023-07-09T01:23:48;2.00;;;1.90;;
57573;SDS011;68988;49.000;21.242;2023-07-09T01:26:16;2.08;;;1.98;;
57573;SDS011;68988;49.000;21.242;2023-07-09T01:28:44;1.77;;;1.67;;
57573;SDS011;68988;49.000;21.242;2023-07-09T01:31:10;1.98;;;1.88;;
57573;SDS011;68988;49.000;21.242;2023-07-09T01:33:38;2.00;;;1.75;;
57573;SDS011;68988;49.000;21.242;2023-07-09T01:36:06;1.90;;;1.80;;
57573;SDS011;68988;49.000;21.242;2023-07-09T01:38:33;2.17;;;2.00;;
57573;SDS011;68988;49.000;21.242;2023-07-09T01:40:59;1.88;;;1.73;;
57573;SDS011;68988;49.000;21.242;2023-07-09T01:43:25;1.70;;;1.60;;
57573;SDS011;68988;49.000;21.242;2023-07-09T01:45:51;3.45;;;1.80;;
57573;SDS011;68988;49.000;21.242;2023-07-09T01:48:17;1.75;;;1.65;;
57573;SDS011;68988;49.000;21.242;2023-07-09T01:50:45;5.22;;;1.95;;
57573;SDS011;68988;49.000;21.242;2023-07-09T01:53:14;2.28;;;2.08;;
57573;SDS011;68988;49.000;21.242;2023-07-09T01:55:41;2.10;;;2.00;;
57573;SDS011;68988;49.000;21.242;2023-07-09T01:58:07;1.80;;;1.65;;
57573;SDS011;68988;49.000;21.242;2023-07-09T02:00:33;2.28;;;1.75;;
57573;SDS011;68988;49.000;21.242;2023-07-09T02:03:03;3.55;;;1.88;;
57573;SDS011;68988;49.000;21.242;2023-07-09T02:05:32;1.92;;;1.65;;
57573;SDS011;68988;49.000;21.242;2023-07-09T02:07:58;3.22;;;1.80;;
57573;SDS011;68988;49.000;21.242;2023-07-09T02:10:24;2.25;;;2.05;;
57573;SDS011;68988;49.000;21.242;2023-07-09T02:12:50;1.88;;;1.77;;
57573;SDS011;68988;49.000;21.242;2023-07-09T02:15:16;1.90;;;1.80;;
57573;SDS011;68988;49.000;21.242;2023-07-09T02:17:41;2.33;;;2.13;;
57573;SDS011;68988;49.000;21.242;2023-07-09T02:20:08;1.92;;;1.83;;
57573;SDS011;68988;49.000;21.242;2023-07-09T02:22:35;4.07;;;1.75;;
57573;SDS011;68988;49.000;21.242;2023-07-09T02:25:02;2.58;;;1.80;;
57573;SDS011;68988;49.000;21.242;2023-07-09T02:27:28;2.63;;;2.05;;
57573;SDS011;68988;49.000;21.242;2023-07-09T02:29:54;2.08;;;1.70;;
57573;SDS011;68988;49.000;21.242;2023-07-09T02:32:23;1.90;;;1.80;;
57573;SDS011;68988;49.000;21.242;2023-07-09T02:34:51;1.60;;;1.50;;
57573;SDS011;68988;49.000;21.242;2023-07-09T02:37:18;1.80;;;1.70;;
57573;SDS011;68988;49.000;21.242;2023-07-09T02:39:49;2.30;;;1.77;;
57573;SDS011;68988;49.000;21.242;2023-07-09T02:42:15;2.05;;;1.80;;
57573;SDS011;68988;49.000;21.242;2023-07-09T02:44:42;2.05;;;1.90;;
57573;SDS011;68988;49.000;21.242;2023-07-09T02:47:08;1.95;;;1.77;;
57573;SDS011;68988;49.000;21.242;2023-07-09T02:49:35;1.80;;;1.70;;
57573;SDS011;68988;49.000;21.242;2023-07-09T02:52:00;1.90;;;1.80;;
57573;SDS011;68988;49.000;21.242;2023-07-09T02:54:26;1.98;;;1.85;;
57573;SDS011;68988;49.000;21.242;2023-07-09T02:56:52;3.90;;;1.50;;
57573;SDS011;68988;49.000;21.242;2023-07-09T02:59:17;1.90;;;1.80;;
57573;SDS011;68988;49.000;21.242;2023-07-09T03:01:43;1.70;;;1.60;;
57573;SDS011;68988;49.000;21.242;2023-07-09T03:04:08;3.40;;;1.60;;
57573;SDS011;68988;49.000;21.242;2023-07-09T03:06:34;1.75;;;1.65;;
57573;SDS011;68988;49.000;21.242;2023-07-09T03:09:01;2.17;;;2.08;;
57573;SDS011;68988;49.000;21.242;2023-07-09T03:11:28;1.88;;;1.77;;
57573;SDS011;68988;49.000;21.242;2023-07-09T03:13:55;2.15;;;1.95;;
57573;SDS011;68988;49.000;21.242;2023-07-09T03:16:21;1.63;;;1.52;;
57573;SDS011;68988;49.000;21.242;2023-07-09T03:18:46;1.63;;;1.52;;
57573;SDS011;68988;49.000;21.242;2023-07-09T03:21:12;1.70;;;1.60;;
57573;SDS011;68988;49.000;21.242;2023-07-09T03:23:37;1.92;;;1.80;;
57573;SDS011;68988;49.000;21.242;2023-07-09T03:26:03;1.88;;;1.77;;
57573;SDS011;68988;49.000;21.242;2023-07-09T03:28:30;2.03;;;1.83;;
57573;SDS011;68988;49.000;21.242;2023-07-09T03:30:56;11.02;;;1.80;;
57573;SDS011;68988;49.000;21.242;2023-07-09T03:33:22;1.70;;;1.60;;
57573;SDS011;68988;49.000;21.242;2023-07-09T03:35:48;1.70;;;1.60;;
57573;SDS011;68988;49.000;21.242;2023-07-09T03:38:13;1.70;;;1.60;;
57573;SDS011;68988;49.000;21.242;2023-07-09T03:40:39;1.48;;;1.38;;
57573;SDS011;68988;49.000;21.242;2023-07-09T03:43:05;1.95;;;1.85;;
57573;SDS011;68988;49.000;21.242;2023-07-09T03:45:31;1.73;;;1.63;;
57573;SDS011;68988;49.000;21.242;2023-07-09T03:47:58;1.80;;;1.70;;
57573;SDS011;68988;49.000;21.242;2023-07-09T03:50:23;1.60;;;1.50;;
57573;SDS011;68988;49.000;21.242;2023-07-09T03:52:49;1.95;;;1.85;;
57573;SDS011;68988;49.000;21.242;2023-07-09T03:55:14;1.67;;;1.55;;
57573;SDS011;68988;49.000;21.242;2023-07-09T03:57:40;2.00;;;1.90;;
57573;SDS011;68988;49.000;21.242;2023-07-09T04:00:06;1.92;;;1.60;;
57573;SDS011;68988;49.000;21.242;2023-07-09T04:02:35;1.88;;;1.77;;
57573;SDS011;68988;49.000;21.242;2023-07-09T04:05:01;1.58;;;1.48;;
57573;SDS011;68988;49.000;21.242;2023-07-09T04:07:26;2.00;;;1.80;;
57573;SDS011;68988;49.000;21.242;2023-07-09T04:09:51;1.90;;;1.67;;
57573;SDS011;68988;49.000;21.242;2023-07-09T04:12:17;1.40;;;1.40;;
57573;SDS011;68988;49.000;21.242;2023-07-09T04:14:42;2.40;;;1.98;;
57573;SDS011;68988;49.000;21.242;2023-07-09T04:17:08;1.70;;;1.60;;
57573;SDS011;68988;49.000;21.242;2023-07-09T04:19:33;1.73;;;1.63;;
57573;SDS011;68988;49.000;21.242;2023-07-09T04:21:58;2.25;;;1.42;;
57573;SDS011;68988;49.000;21.242;2023-07-09T04:24:24;1.50;;;1.40;;
57573;SDS011;68988;49.000;21.242;2023-07-09T04:26:49;1.60;;;1.50;;
57573;SDS011;68988;49.000;21.242;2023-07-09T04:29:14;1.77;;;1.67;;
57573;SDS011;68988;49.000;21.242;2023-07-09T04:31:40;1.67;;;1.58;;
57573;SDS011;68988;49.000;21.242;2023-07-09T04:34:06;1.60;;;1.50;;
57573;SDS011;68988;49.000;21.242;2023-07-09T04:36:33;1.88;;;1.77;;
57573;SDS011;68988;49.000;21.242;2023-07-09T04:38:58;2.65;;;1.70;;
57573;SDS011;68988;49.000;21.242;2023-07-09T04:41:24;1.60;;;1.50;;
57573;SDS011;68988;49.000;21.242;2023-07-09T04:43:49;1.85;;;1.67;;
57573;SDS011;68988;49.000;21.242;2023-07-09T04:46:15;1.60;;;1.50;;
57573;SDS011;68988;49.000;21.242;2023-07-09T04:48:40;3.53;;;1.90;;
57573;SDS011;68988;49.000;21.242;2023-07-09T04:51:06;1.50;;;1.40;;
57573;SDS011;68988;49.000;21.242;2023-07-09T04:53:31;2.65;;;1.60;;
57573;SDS011;68988;49.000;21.242;2023-07-09T04:55:57;4.60;;;1.60;;
57573;SDS011;68988;49.000;21.242;2023-07-09T04:58:22;1.52;;;1.42;;
57573;SDS011;68988;49.000;21.242;2023-07-09T05:00:48;4.88;;;1.63;;
57573;SDS011;68988;49.000;21.242;2023-07-09T05:03:15;1.65;;;1.55;;
57573;SDS011;68988;49.000;21.242;2023-07-09T05:05:44;5.50;;;1.40;;
57573;SDS011;68988;49.000;21.242;2023-07-09T05:08:11;1.98;;;1.77;;
57573;SDS011;68988;49.000;21.242;2023-07-09T05:10:43;1.65;;;1.33;;
57573;SDS011;68988;49.000;21.242;2023-07-09T05:13:09;1.40;;;1.30;;
57573;SDS011;68988;49.000;21.242;2023-07-09T05:15:35;1.58;;;1.40;;
57573;SDS011;68988;49.000;21.242;2023-07-09T05:18:00;1.17;;;1.17;;
57573;SDS011;68988;49.000;21.242;2023-07-09T05:20:26;1.50;;;1.40;;
57573;SDS011;68988;49.000;21.242;2023-07-09T05:22:51;2.88;;;1.40;;
57573;SDS011;68988;49.000;21.242;2023-07-09T05:25:17;2.83;;;1.60;;
57573;SDS011;68988;49.000;21.242;2023-07-09T05:27:42;1.55;;;1.40;;
57573;SDS011;68988;49.000;21.242;2023-07-09T05:30:08;1.63;;;1.52;;
57573;SDS011;68988;49.000;21.242;2023-07-09T05:32:33;1.85;;;1.60;;
57573;SDS011;68988;49.000;21.242;2023-07-09T05:35:00;1.40;;;1.30;;
57573;SDS011;68988;49.000;21.242;2023-07-09T05:37:26;1.50;;;1.40;;
57573;SDS011;68988;49.000;21.242;2023-07-09T05:39:51;3.33;;;1.55;;
57573;SDS011;68988;49.000;21.242;2023-07-09T05:42:16;1.42;;;1.33;;
57573;SDS011;68988;49.000;21.242;2023-07-09T05:44:42;1.73;;;1.55;;
57573;SDS011;68988;49.000;21.242;2023-07-09T05:47:07;1.55;;;1.45;;
57573;SDS011;68988;49.000;21.242;2023-07-09T05:49:33;1.73;;;1.38;;
57573;SDS011;68988;49.000;21.242;2023-07-09T05:51:58;1.65;;;1.55;;
57573;SDS011;68988;49.000;21.242;2023-07-09T05:54:23;1.50;;;1.40;;
57573;SDS011;68988;49.000;21.242;2023-07-09T05:56:49;1.50;;;1.40;;
57573;SDS011;68988;49.000;21.242;2023-07-09T05:59:14;3.05;;;1.30;;
57573;SDS011;68988;49.000;21.242;2023-07-09T06:01:39;2.47;;;1.30;;
57573;SDS011;68988;49.000;21.242;2023-07-09T06:04:05;1.63;;;1.40;;
57573;SDS011;68988;49.000;21.242;2023-07-09T06:06:31;2.55;;;1.25;;
57573;SDS011;68988;49.000;21.242;2023-07-09T06:08:56;1.60;;;1.50;;
57573;SDS011;68988;49.000;21.242;2023-07-09T06:11:22;1.20;;;1.20;;
57573;SDS011;68988;49.000;21.242;2023-07-09T06:13:48;1.90;;;1.40;;
57573;SDS011;68988;49.000;21.242;2023-07-09T06:16:14;1.50;;;1.40;;
57573;SDS011;68988;49.000;21.242;2023-07-09T06:18:39;1.25;;;1.13;;
57573;SDS011;68988;49.000;21.242;2023-07-09T06:21:05;1.40;;;1.30;;
57573;SDS011;68988;49.000;21.242;2023-07-09T06:23:32;1.50;;;1.40;;
57573;SDS011;68988;49.000;21.242;2023-07-09T06:25:58;1.40;;;1.30;;
57573;SDS011;68988;49.000;21.242;2023-07-09T06:28:25;2.40;;;1.40;;
57573;SDS011;68988;49.000;21.242;2023-07-09T06:30:53;1.20;;;1.20;;
57573;SDS011;68988;49.000;21.242;2023-07-09T06:33:19;1.27;;;1.20;;
57573;SDS011;68988;49.000;21.242;2023-07-09T06:35:48;2.50;;;1.20;;
57573;SDS011;68988;49.000;21.242;2023-07-09T06:38:19;1.42;;;1.33;;
57573;SDS011;68988;49.000;21.242;2023-07-09T06:40:45;1.33;;;1.23;;
57573;SDS011;68988;49.000;21.242;2023-07-09T06:43:10;1.42;;;1.38;;
57573;SDS011;68988;49.000;21.242;2023-07-09T06:45:36;1.45;;;1.35;;
57573;SDS011;68988;49.000;21.242;2023-07-09T06:48:02;1.30;;;1.20;;
57573;SDS011;68988;49.000;21.242;2023-07-09T06:50:28;1.30;;;1.20;;
57573;SDS011;68988;49.000;21.242;2023-07-09T06:52:54;2.25;;;1.23;;
57573;SDS011;68988;49.000;21.242;2023-07-09T06:55:19;1.52;;;1.42;;
57573;SDS011;68988;49.000;21.242;2023-07-09T06:57:45;1.42;;;1.30;;
57573;SDS011;68988;49.000;21.242;2023-07-09T07:00:11;1.70;;;1.40;;
57573;SDS011;68988;49.000;21.242;2023-07-09T07:02:36;3.38;;;1.45;;
57573;SDS011;68988;49.000;21.242;2023-07-09T07:05:02;1.55;;;1.45;;
57573;SDS011;68988;49.000;21.242;2023-07-09T07:07:27;1.40;;;1.30;;
57573;SDS011;68988;49.000;21.242;2023-07-09T07:09:53;3.90;;;1.50;;
57573;SDS011;68988;49.000;21.242;2023-07-09T07:12:26;1.63;;;1.52;;
57573;SDS011;68988;49.000;21.242;2023-07-09T07:14:53;1.42;;;1.33;;
57573;SDS011;68988;49.000;21.242;2023-07-09T07:17:19;2.60;;;1.83;;
57573;SDS011;68988;49.000;21.242;2023-07-09T07:19:45;1.50;;;1.40;;
57573;SDS011;68988;49.000;21.242;2023-07-09T07:22:10;1.40;;;1.30;;
57573;SDS011;68988;49.000;21.242;2023-07-09T07:24:36;1.98;;;1.20;;
57573;SDS011;68988;49.000;21.242;2023-07-09T07:27:01;1.55;;;1.42;;
57573;SDS011;68988;49.000;21.242;2023-07-09T07:29:27;1.15;;;1.15;;
57573;SDS011;68988;49.000;21.242;2023-07-09T07:31:53;1.30;;;1.27;;
57573;SDS011;68988;49.000;21.242;2023-07-09T07:34:19;1.42;;;1.20;;
57573;SDS011;68988;49.000;21.242;2023-07-09T07:36:44;1.50;;;1.40;;
57573;SDS011;68988;49.000;21.242;2023-07-09T07:39:09;1.73;;;1.63;;
57573;SDS011;68988;49.000;21.242;2023-07-09T07:41:35;3.55;;;1.48;;
57573;SDS011;68988;49.000;21.242;2023-07-09T07:44:01;1.90;;;1.50;;
57573;SDS011;68988;49.000;21.242;2023-07-09T07:46:26;1.40;;;1.30;;
57573;SDS011;68988;49.000;21.242;2023-07-09T07:48:51;1.50;;;1.40;;
57573;SDS011;68988;49.000;21.242;2023-07-09T07:51:17;1.30;;;1.20;;
57573;SDS011;68988;49.000;21.242;2023-07-09T07:53:42;1.60;;;1.50;;
57573;SDS011;68988;49.000;21.242;2023-07-09T07:56:07;1.40;;;1.30;;
57573;SDS011;68988;49.000;21.242;2023-07-09T07:58:33;6.28;;;1.45;;
57573;SDS011;68988;49.000;21.242;2023-07-09T08:00:59;1.80;;;1.70;;
57573;SDS011;68988;49.000;21.242;2023-07-09T08:03:25;2.53;;;1.80;;
57573;SDS011;68988;49.000;21.242;2023-07-09T08:05:51;1.40;;;1.30;;
57573;SDS011;68988;49.000;21.242;2023-07-09T08:08:17;1.55;;;1.45;;
57573;SDS011;68988;49.000;21.242;2023-07-09T08:10:42;1.58;;;1.48;;
57573;SDS011;68988;49.000;21.242;2023-07-09T08:13:08;1.33;;;1.33;;
57573;SDS011;68988;49.000;21.242;2023-07-09T08:15:33;1.45;;;1.38;;
57573;SDS011;68988;49.000;21.242;2023-07-09T08:17:59;2.78;;;1.60;;
57573;SDS011;68988;49.000;21.242;2023-07-09T08:20:25;1.52;;;1.42;;
57573;SDS011;68988;49.000;21.242;2023-07-09T08:22:50;6.75;;;1.30;;
57573;SDS011;68988;49.000;21.242;2023-07-09T08:25:15;1.60;;;1.50;;
57573;SDS011;68988;49.000;21.242;2023-07-09T08:27:41;1.50;;;1.40;;
57573;SDS011;68988;49.000;21.242;2023-07-09T08:30:06;1.40;;;1.30;;
57573;SDS011;68988;49.000;21.242;2023-07-09T08:32:32;1.52;;;1.42;;
57573;SDS011;68988;49.000;21.242;2023-07-09T08:34:58;1.63;;;1.20;;
57573;SDS011;68988;49.000;21.242;2023-07-09T08:37:23;1.85;;;1.20;;
57573;SDS011;68988;49.000;21.242;2023-07-09T08:39:48;1.35;;;1.27;;
57573;SDS011;68988;49.000;21.242;2023-07-09T08:42:16;1.58;;;1.40;;
57573;SDS011;68988;49.000;21.242;2023-07-09T08:53:02;1.50;;;1.40;;
57573;SDS011;68988;49.000;21.242;2023-07-09T08:55:29;1.90;;;1.50;;
57573;SDS011;68988;49.000;21.242;2023-07-09T08:58:08;1.55;;;1.45;;
57573;SDS011;68988;49.000;21.242;2023-07-09T09:03:28;2.00;;;1.40;;
57573;SDS011;68988;49.000;21.242;2023-07-09T09:06:00;1.27;;;1.23;;
57573;SDS011;68988;49.000;21.242;2023-07-09T09:08:39;2.08;;;1.73;;
57573;SDS011;68988;49.000;21.242;2023-07-09T09:13:31;1.30;;;1.30;;
57573;SDS011;68988;49.000;21.242;2023-07-09T09:15:59;1.63;;;1.52;;
57573;SDS011;68988;49.000;21.242;2023-07-09T09:18:39;1.50;;;1.40;;
57573;SDS011;68988;49.000;21.242;2023-07-09T09:21:11;1.60;;;1.50;;
57573;SDS011;68988;49.000;21.242;2023-07-09T09:26:38;1.60;;;1.50;;
57573;SDS011;68988;49.000;21.242;2023-07-09T09:29:14;1.92;;;1.40;;
57573;SDS011;68988;49.000;21.242;2023-07-09T09:31:41;1.25;;;1.20;;
57573;SDS011;68988;49.000;21.242;2023-07-09T09:34:20;1.30;;;1.20;;
57573;SDS011;68988;49.000;21.242;2023-07-09T09:36:47;1.67;;;1.58;;
57573;SDS011;68988;49.000;21.242;2023-07-09T09:39:13;2.92;;;1.60;;
57573;SDS011;68988;49.000;21.242;2023-07-09T09:41:38;1.58;;;1.48;;
57573;SDS011;68988;49.000;21.242;2023-07-09T09:44:05;4.00;;;1.52;;
57573;SDS011;68988;49.000;21.242;2023-07-09T09:46:31;2.15;;;1.58;;
57573;SDS011;68988;49.000;21.242;2023-07-09T09:49:00;3.97;;;1.50;;
57573;SDS011;68988;49.000;21.242;2023-07-09T09:51:27;5.85;;;1.92;;
57573;SDS011;68988;49.000;21.242;2023-07-09T09:53:55;1.63;;;1.52;;
57573;SDS011;68988;49.000;21.242;2023-07-09T09:58:58;1.67;;;1.58;;
57573;SDS011;68988;49.000;21.242;2023-07-09T10:01:31;3.13;;;1.33;;
57573;SDS011;68988;49.000;21.242;2023-07-09T10:04:00;2.80;;;1.52;;
57573;SDS011;68988;49.000;21.242;2023-07-09T10:06:37;1.48;;;1.38;;
57573;SDS011;68988;49.000;21.242;2023-07-09T10:12:10;1.60;;;1.50;;
57573;SDS011;68988;49.000;21.242;2023-07-09T10:14:37;2.95;;;1.80;;
57573;SDS011;68988;49.000;21.242;2023-07-09T10:33:12;1.70;;;1.60;;
57573;SDS011;68988;49.000;21.242;2023-07-09T10:41:22;1.75;;;1.65;;
57573;SDS011;68988;49.000;21.242;2023-07-09T10:43:56;1.70;;;1.60;;
57573;SDS011;68988;49.000;21.242;2023-07-09T10:46:33;1.52;;;1.42;;
57573;SDS011;68988;49.000;21.242;2023-07-09T10:49:02;1.60;;;1.50;;
57573;SDS011;68988;49.000;21.242;2023-07-09T10:51:44;2.05;;;1.60;;
57573;SDS011;68988;49.000;21.242;2023-07-09T10:56:45;3.53;;;1.50;;
57573;SDS011;68988;49.000;21.242;2023-07-09T11:01:48;1.52;;;1.42;;
57573;SDS011;68988;49.000;21.242;2023-07-09T11:07:10;1.48;;;1.38;;
57573;SDS011;68988;49.000;21.242;2023-07-09T11:09:40;2.40;;;1.70;;
57573;SDS011;68988;49.000;21.242;2023-07-09T11:12:10;2.33;;;1.88;;
57573;SDS011;68988;49.000;21.242;2023-07-09T11:17:14;1.60;;;1.50;;
57573;SDS011;68988;49.000;21.242;2023-07-09T11:19:43;1.92;;;1.73;;
57573;SDS011;68988;49.000;21.242;2023-07-09T11:22:16;1.60;;;1.50;;
57573;SDS011;68988;49.000;21.242;2023-07-09T11:27:18;2.50;;;1.45;;
57573;SDS011;68988;49.000;21.242;2023-07-09T11:29:57;1.88;;;1.77;;
57573;SDS011;68988;49.000;21.242;2023-07-09T11:32:25;1.70;;;1.60;;
57573;SDS011;68988;49.000;21.242;2023-07-09T11:34:52;1.60;;;1.50;;
57573;SDS011;68988;49.000;21.242;2023-07-09T11:37:17;1.60;;;1.50;;
57573;SDS011;68988;49.000;21.242;2023-07-09T11:39:44;2.05;;;1.90;;
57573;SDS011;68988;49.000;21.242;2023-07-09T11:45:06;2.88;;;1.80;;
57573;SDS011;68988;49.000;21.242;2023-07-09T11:50:05;4.15;;;1.90;;
57573;SDS011;68988;49.000;21.242;2023-07-09T11:52:48;1.83;;;1.73;;
57573;SDS011;68988;49.000;21.242;2023-07-09T11:57:58;4.10;;;1.80;;
57573;SDS011;68988;49.000;21.242;2023-07-09T12:00:25;1.75;;;1.65;;
57573;SDS011;68988;49.000;21.242;2023-07-09T12:03:15;1.98;;;1.88;;
57573;SDS011;68988;49.000;21.242;2023-07-09T12:05:51;1.95;;;1.85;;
57573;SDS011;68988;49.000;21.242;2023-07-09T12:08:20;2.72;;;1.70;;
57573;SDS011;68988;49.000;21.242;2023-07-09T12:10:51;3.28;;;1.55;;
57573;SDS011;68988;49.000;21.242;2023-07-09T12:13:18;1.50;;;1.40;;
57573;SDS011;68988;49.000;21.242;2023-07-09T12:15:43;1.92;;;1.75;;
57573;SDS011;68988;49.000;21.242;2023-07-09T12:18:13;1.65;;;1.55;;
57573;SDS011;68988;49.000;21.242;2023-07-09T12:20:40;1.80;;;1.70;;
57573;SDS011;68988;49.000;21.242;2023-07-09T12:26:01;1.85;;;1.75;;
57573;SDS011;68988;49.000;21.242;2023-07-09T12:28:28;2.17;;;1.80;;
57573;SDS011;68988;49.000;21.242;2023-07-09T12:30:54;1.83;;;1.73;;
57573;SDS011;68988;49.000;21.242;2023-07-09T12:33:20;1.88;;;1.77;;
57573;SDS011;68988;49.000;21.242;2023-07-09T12:35:48;3.42;;;1.63;;
57573;SDS011;68988;49.000;21.242;2023-07-09T12:38:21;1.77;;;1.67;;
57573;SDS011;68988;49.000;21.242;2023-07-09T12:40:48;2.00;;;1.90;;
57573;SDS011;68988;49.000;21.242;2023-07-09T12:43:17;1.63;;;1.52;;
57573;SDS011;68988;49.000;21.242;2023-07-09T12:45:48;1.90;;;1.80;;
57573;SDS011;68988;49.000;21.242;2023-07-09T12:48:13;1.48;;;1.38;;
57573;SDS011;68988;49.000;21.242;2023-07-09T12:50:39;1.70;;;1.60;;
57573;SDS011;68988;49.000;21.242;2023-07-09T12:53:15;2.17;;;1.73;;
57573;SDS011;68988;49.000;21.242;2023-07-09T12:55:42;1.98;;;1.85;;
57573;SDS011;68988;49.000;21.242;2023-07-09T12:58:11;1.52;;;1.42;;
57573;SDS011;68988;49.000;21.242;2023-07-09T13:00:43;1.77;;;1.67;;
57573;SDS011;68988;49.000;21.242;2023-07-09T13:03:16;4.13;;;2.53;;
57573;SDS011;68988;49.000;21.242;2023-07-09T13:05:56;2.63;;;2.45;;
57573;SDS011;68988;49.000;21.242;2023-07-09T13:08:24;2.83;;;2.63;;
57573;SDS011;68988;49.000;21.242;2023-07-09T13:10:51;2.33;;;2.13;;
57573;SDS011;68988;49.000;21.242;2023-07-09T13:13:18;2.63;;;2.30;;
57573;SDS011;68988;49.000;21.242;2023-07-09T13:15:49;2.30;;;2.10;;
57573;SDS011;68988;49.000;21.242;2023-07-09T13:18:21;3.78;;;1.77;;
57573;SDS011;68988;49.000;21.242;2023-07-09T13:20:47;1.80;;;1.70;;
57573;SDS011;68988;49.000;21.242;2023-07-09T13:23:16;4.00;;;2.03;;
57573;SDS011;68988;49.000;21.242;2023-07-09T13:25:44;1.80;;;1.70;;
57573;SDS011;68988;49.000;21.242;2023-07-09T13:28:20;2.75;;;1.75;;
57573;SDS011;68988;49.000;21.242;2023-07-09T13:30:51;2.35;;;2.25;;
57573;SDS011;68988;49.000;21.242;2023-07-09T13:33:18;2.10;;;2.00;;
57573;SDS011;68988;49.000;21.242;2023-07-09T13:35:44;2.10;;;2.00;;
57573;SDS011;68988;49.000;21.242;2023-07-09T13:38:14;1.80;;;1.70;;
57573;SDS011;68988;49.000;21.242;2023-07-09T13:40:42;1.55;;;1.45;;
57573;SDS011;68988;49.000;21.242;2023-07-09T13:43:13;2.08;;;1.73;;
57573;SDS011;68988;49.000;21.242;2023-07-09T13:45:40;1.73;;;1.63;;
57573;SDS011;68988;49.000;21.242;2023-07-09T13:48:13;1.85;;;1.75;;
57573;SDS011;68988;49.000;21.242;2023-07-09T13:50:41;2.03;;;1.92;;
57573;SDS011;68988;49.000;21.242;2023-07-09T13:53:14;3.83;;;1.75;;
57573;SDS011;68988;49.000;21.242;2023-07-09T13:55:44;2.75;;;1.90;;
57573;SDS011;68988;49.000;21.242;2023-07-09T13:58:11;1.65;;;1.55;;
57573;SDS011;68988;49.000;21.242;2023-07-09T14:00:39;1.90;;;1.80;;
57573;SDS011;68988;49.000;21.242;2023-07-09T14:03:17;1.70;;;1.60;;
57573;SDS011;68988;49.000;21.242;2023-07-09T14:05:46;1.90;;;1.80;;
57573;SDS011;68988;49.000;21.242;2023-07-09T14:08:12;2.95;;;1.92;;
57573;SDS011;68988;49.000;21.242;2023-07-09T14:10:37;2.40;;;1.88;;
57573;SDS011;68988;49.000;21.242;2023-07-09T14:13:04;1.85;;;1.75;;
57573;SDS011;68988;49.000;21.242;2023-07-09T14:15:30;2.03;;;1.92;;
57573;SDS011;68988;49.000;21.242;2023-07-09T14:17:55;4.40;;;1.80;;
57573;SDS011;68988;49.000;21.242;2023-07-09T14:20:21;1.95;;;1.85;;
57573;SDS011;68988;49.000;21.242;2023-07-09T14:22:48;2.38;;;1.75;;
57573;SDS011;68988;49.000;21.242;2023-07-09T14:25:19;1.70;;;1.60;;
57573;SDS011;68988;49.000;21.242;2023-07-09T14:27:48;1.92;;;1.67;;
57573;SDS011;68988;49.000;21.242;2023-07-09T14:30:17;1.60;;;1.50;;
57573;SDS011;68988;49.000;21.242;2023-07-09T14:32:46;2.10;;;2.00;;
57573;SDS011;68988;49.000;21.242;2023-07-09T14:35:22;1.67;;;1.58;;
57573;SDS011;68988;49.000;21.242;2023-07-09T14:37:49;1.73;;;1.63;;
57573;SDS011;68988;49.000;21.242;2023-07-09T14:40:17;1.63;;;1.52;;
57573;SDS011;68988;49.000;21.242;2023-07-09T14:42:45;2.00;;;1.90;;
57573;SDS011;68988;49.000;21.242;2023-07-09T14:45:21;1.88;;;1.77;;
57573;SDS011;68988;49.000;21.242;2023-07-09T14:47:49;1.88;;;1.77;;
57573;SDS011;68988;49.000;21.242;2023-07-09T14:50:16;1.90;;;1.80;;
57573;SDS011;68988;49.000;21.242;2023-07-09T14:52:42;1.73;;;1.63;;
57573;SDS011;68988;49.000;21.242;2023-07-09T14:55:20;4.38;;;1.70;;
57573;SDS011;68988;49.000;21.242;2023-07-09T14:57:47;3.58;;;1.90;;
57573;SDS011;68988;49.000;21.242;2023-07-09T15:00:13;1.90;;;1.67;;
57573;SDS011;68988;49.000;21.242;2023-07-09T15:02:41;2.05;;;1.90;;
57573;SDS011;68988;49.000;21.242;2023-07-09T15:05:25;2.45;;;1.83;;
57573;SDS011;68988;49.000;21.242;2023-07-09T15:07:51;2.47;;;1.90;;
57573;SDS011;68988;49.000;21.242;2023-07-09T15:10:18;3.15;;;1.63;;
57573;SDS011;68988;49.000;21.242;2023-07-09T15:12:48;5.38;;;1.70;;
57573;SDS011;68988;49.000;21.242;2023-07-09T15:15:30;2.15;;;2.05;;
57573;SDS011;68988;49.000;21.242;2023-07-09T15:17:56;2.08;;;1.88;;
57573;SDS011;68988;49.000;21.242;2023-07-09T15:20:25;1.65;;;1.55;;
57573;SDS011;68988;49.000;21.242;2023-07-09T15:22:53;4.03;;;1.90;;
57573;SDS011;68988;49.000;21.242;2023-07-09T15:25:23;2.05;;;1.85;;
57573;SDS011;68988;49.000;21.242;2023-07-09T15:27:50;2.50;;;2.33;;
57573;SDS011;68988;49.000;21.242;2023-07-09T15:30:18;2.10;;;2.00;;
57573;SDS011;68988;49.000;21.242;2023-07-09T15:32:55;4.53;;;1.85;;
57573;SDS011;68988;49.000;21.242;2023-07-09T15:35:22;2.40;;;2.20;;
57573;SDS011;68988;49.000;21.242;2023-07-09T15:37:48;2.15;;;1.95;;
57573;SDS011;68988;49.000;21.242;2023-07-09T15:40:20;4.63;;;2.05;;
57573;SDS011;68988;49.000;21.242;2023-07-09T15:42:49;2.65;;;2.45;;
57573;SDS011;68988;49.000;21.242;2023-07-09T15:45:20;4.80;;;2.92;;
57573;SDS011;68988;49.000;21.242;2023-07-09T15:47:46;2.90;;;2.70;;
57573;SDS011;68988;49.000;21.242;2023-07-09T15:50:15;3.53;;;2.80;;